sensor_id;sensor_type;location;lat;lon;timestamp;P1;durP1;ratioP1;P2;durP2;ratioP2
52047;SDS011;46904;49.438;8.752;2022-12-10T00:00:23;7.95;;;6.00;;
52047;SDS011;46904;49.438;8.752;2022-12-10T00:02:49;7.20;;;5.47;;
52047;SDS011;46904;49.438;8.752;2022-12-10T00:05:15;8.23;;;5.68;;
52047;SDS011;46904;49.438;8.752;2022-12-10T00:07:40;7.97;;;5.40;;
52047;SDS011;46904;49.438;8.752;2022-12-10T00:10:06;10.15;;;6.10;;
52047;SDS011;46904;49.438;8.752;2022-12-10T00:12:31;7.20;;;5.45;;
52047;SDS011;46904;49.438;8.752;2022-12-10T00:14:57;8.38;;;6.20;;
52047;SDS011;46904;49.438;8.752;2022-12-10T00:17:23;9.30;;;6.20;;
52047;SDS011;46904;49.438;8.752;2022-12-10T00:19:48;8.50;;;5.80;;
52047;SDS011;46904;49.438;8.752;2022-12-10T00:22:14;7.93;;;5.68;;
52047;SDS011;46904;49.438;8.752;2022-12-10T00:24:39;9.30;;;5.90;;
52047;SDS011;46904;49.438;8.752;2022-12-10T00:27:05;9.38;;;5.60;;
52047;SDS011;46904;49.438;8.752;2022-12-10T00:29:30;7.82;;;5.20;;
52047;SDS011;46904;49.438;8.752;2022-12-10T00:31:56;8.65;;;5.65;;
52047;SDS011;46904;49.438;8.752;2022-12-10T00:34:21;9.07;;;6.18;;
52047;SDS011;46904;49.438;8.752;2022-12-10T00:36:47;10.20;;;5.95;;
52047;SDS011;46904;49.438;8.752;2022-12-10T00:39:14;10.63;;;6.28;;
52047;SDS011;46904;49.438;8.752;2022-12-10T00:41:40;8.98;;;6.75;;
52047;SDS011;46904;49.438;8.752;2022-12-10T00:44:06;9.45;;;5.88;;
52047;SDS011;46904;49.438;8.752;2022-12-10T00:46:31;10.13;;;6.30;;
52047;SDS011;46904;49.438;8.752;2022-12-10T00:48:58;11.13;;;6.50;;
52047;SDS011;46904;49.438;8.752;2022-12-10T00:51:24;12.35;;;7.15;;
52047;SDS011;46904;49.438;8.752;2022-12-10T00:53:50;9.55;;;6.10;;
52047;SDS011;46904;49.438;8.752;2022-12-10T00:56:16;10.70;;;6.53;;
52047;SDS011;46904;49.438;8.752;2022-12-10T00:58:43;8.95;;;6.28;;
52047;SDS011;46904;49.438;8.752;2022-12-10T01:01:31;8.95;;;6.28;;
52047;SDS011;46904;49.438;8.752;2022-12-10T01:03:55;6.68;;;5.07;;
52047;SDS011;46904;49.438;8.752;2022-12-10T01:06:25;9.02;;;5.88;;
52047;SDS011;46904;49.438;8.752;2022-12-10T01:08:52;9.40;;;6.00;;
52047;SDS011;46904;49.438;8.752;2022-12-10T01:11:18;8.32;;;5.88;;
52047;SDS011;46904;49.438;8.752;2022-12-10T01:13:44;8.48;;;5.90;;
52047;SDS011;46904;49.438;8.752;2022-12-10T01:16:11;8.45;;;5.85;;
52047;SDS011;46904;49.438;8.752;2022-12-10T01:18:37;8.32;;;6.00;;
52047;SDS011;46904;49.438;8.752;2022-12-10T01:21:03;7.93;;;5.65;;
52047;SDS011;46904;49.438;8.752;2022-12-10T01:23:30;9.40;;;6.43;;
52047;SDS011;46904;49.438;8.752;2022-12-10T01:25:58;8.57;;;5.63;;
52047;SDS011;46904;49.438;8.752;2022-12-10T01:28:24;8.93;;;5.97;;
52047;SDS011;46904;49.438;8.752;2022-12-10T01:30:49;9.07;;;6.05;;
52047;SDS011;46904;49.438;8.752;2022-12-10T01:33:15;10.25;;;5.93;;
52047;SDS011;46904;49.438;8.752;2022-12-10T01:35:40;8.13;;;5.70;;
52047;SDS011;46904;49.438;8.752;2022-12-10T01:38:06;10.27;;;6.05;;
52047;SDS011;46904;49.438;8.752;2022-12-10T01:40:36;9.25;;;5.82;;
52047;SDS011;46904;49.438;8.752;2022-12-10T01:43:02;9.02;;;5.93;;
52047;SDS011;46904;49.438;8.752;2022-12-10T01:45:28;8.52;;;6.03;;
52047;SDS011;46904;49.438;8.752;2022-12-10T01:47:53;9.10;;;5.60;;
52047;SDS011;46904;49.438;8.752;2022-12-10T01:50:19;10.38;;;6.82;;
52047;SDS011;46904;49.438;8.752;2022-12-10T01:52:44;7.80;;;5.43;;
52047;SDS011;46904;49.438;8.752;2022-12-10T01:55:35;8.10;;;5.78;;
52047;SDS011;46904;49.438;8.752;2022-12-10T01:57:56;9.75;;;5.97;;
52047;SDS011;46904;49.438;8.752;2022-12-10T02:00:21;8.77;;;5.90;;
52047;SDS011;46904;49.438;8.752;2022-12-10T02:02:55;8.57;;;5.53;;
52047;SDS011;46904;49.438;8.752;2022-12-10T02:05:28;9.68;;;5.47;;
52047;SDS011;46904;49.438;8.752;2022-12-10T02:15:27;7.38;;;5.05;;
52047;SDS011;46904;49.438;8.752;2022-12-10T02:17:58;8.20;;;5.47;;
52047;SDS011;46904;49.438;8.752;2022-12-10T02:20:31;8.02;;;5.85;;
52047;SDS011;46904;49.438;8.752;2022-12-10T02:23:08;6.93;;;4.82;;
52047;SDS011;46904;49.438;8.752;2022-12-10T02:30:50;7.30;;;4.85;;
52047;SDS011;46904;49.438;8.752;2022-12-10T02:33:16;7.15;;;4.75;;
52047;SDS011;46904;49.438;8.752;2022-12-10T02:35:43;8.55;;;5.50;;
52047;SDS011;46904;49.438;8.752;2022-12-10T02:38:12;8.18;;;5.18;;
52047;SDS011;46904;49.438;8.752;2022-12-10T02:40:41;6.88;;;5.10;;
52047;SDS011;46904;49.438;8.752;2022-12-10T02:43:08;7.78;;;5.72;;
52047;SDS011;46904;49.438;8.752;2022-12-10T02:45:35;9.23;;;5.55;;
52047;SDS011;46904;49.438;8.752;2022-12-10T02:48:01;7.13;;;5.43;;
52047;SDS011;46904;49.438;8.752;2022-12-10T02:50:28;8.02;;;5.57;;
52047;SDS011;46904;49.438;8.752;2022-12-10T02:52:54;7.07;;;5.25;;
52047;SDS011;46904;49.438;8.752;2022-12-10T02:55:19;7.15;;;5.03;;
52047;SDS011;46904;49.438;8.752;2022-12-10T02:58:03;7.60;;;4.85;;
52047;SDS011;46904;49.438;8.752;2022-12-10T03:00:32;7.68;;;5.50;;
52047;SDS011;46904;49.438;8.752;2022-12-10T03:07:56;8.70;;;6.07;;
52047;SDS011;46904;49.438;8.752;2022-12-10T03:12:57;7.30;;;5.43;;
52047;SDS011;46904;49.438;8.752;2022-12-10T03:15:24;11.23;;;7.40;;
52047;SDS011;46904;49.438;8.752;2022-12-10T03:17:50;10.30;;;7.15;;
52047;SDS011;46904;49.438;8.752;2022-12-10T03:20:16;9.02;;;5.63;;
52047;SDS011;46904;49.438;8.752;2022-12-10T03:22:43;9.52;;;5.95;;
52047;SDS011;46904;49.438;8.752;2022-12-10T03:25:09;10.90;;;5.60;;
52047;SDS011;46904;49.438;8.752;2022-12-10T03:27:36;8.43;;;5.57;;
52047;SDS011;46904;49.438;8.752;2022-12-10T03:30:04;8.20;;;5.50;;
52047;SDS011;46904;49.438;8.752;2022-12-10T03:32:30;7.43;;;5.47;;
52047;SDS011;46904;49.438;8.752;2022-12-10T03:34:56;9.10;;;5.65;;
52047;SDS011;46904;49.438;8.752;2022-12-10T03:37:23;8.90;;;5.78;;
52047;SDS011;46904;49.438;8.752;2022-12-10T03:39:49;9.57;;;6.40;;
52047;SDS011;46904;49.438;8.752;2022-12-10T03:42:14;9.15;;;6.22;;
52047;SDS011;46904;49.438;8.752;2022-12-10T03:44:40;10.52;;;7.05;;
52047;SDS011;46904;49.438;8.752;2022-12-10T03:47:06;10.38;;;6.55;;
52047;SDS011;46904;49.438;8.752;2022-12-10T03:49:32;10.40;;;6.93;;
52047;SDS011;46904;49.438;8.752;2022-12-10T03:51:58;9.90;;;6.72;;
52047;SDS011;46904;49.438;8.752;2022-12-10T03:54:24;8.65;;;6.50;;
52047;SDS011;46904;49.438;8.752;2022-12-10T03:56:49;11.02;;;7.60;;
52047;SDS011;46904;49.438;8.752;2022-12-10T03:59:15;11.07;;;7.10;;
52047;SDS011;46904;49.438;8.752;2022-12-10T04:01:40;9.73;;;6.80;;
52047;SDS011;46904;49.438;8.752;2022-12-10T04:04:06;8.73;;;6.05;;
52047;SDS011;46904;49.438;8.752;2022-12-10T04:06:32;10.82;;;7.05;;
52047;SDS011;46904;49.438;8.752;2022-12-10T04:08:57;9.75;;;6.40;;
52047;SDS011;46904;49.438;8.752;2022-12-10T04:11:23;10.13;;;6.82;;
52047;SDS011;46904;49.438;8.752;2022-12-10T04:13:48;8.82;;;5.95;;
52047;SDS011;46904;49.438;8.752;2022-12-10T04:16:14;8.63;;;6.72;;
52047;SDS011;46904;49.438;8.752;2022-12-10T04:18:39;9.95;;;6.60;;
52047;SDS011;46904;49.438;8.752;2022-12-10T04:21:05;9.77;;;6.97;;
52047;SDS011;46904;49.438;8.752;2022-12-10T04:23:30;9.30;;;6.25;;
52047;SDS011;46904;49.438;8.752;2022-12-10T04:25:56;11.88;;;7.43;;
52047;SDS011;46904;49.438;8.752;2022-12-10T04:28:21;10.57;;;6.68;;
52047;SDS011;46904;49.438;8.752;2022-12-10T04:30:47;9.20;;;6.32;;
52047;SDS011;46904;49.438;8.752;2022-12-10T04:33:13;8.57;;;6.20;;
52047;SDS011;46904;49.438;8.752;2022-12-10T04:35:38;10.70;;;6.63;;
52047;SDS011;46904;49.438;8.752;2022-12-10T04:38:04;10.07;;;6.75;;
52047;SDS011;46904;49.438;8.752;2022-12-10T04:40:29;11.70;;;6.45;;
52047;SDS011;46904;49.438;8.752;2022-12-10T04:42:55;10.65;;;6.18;;
52047;SDS011;46904;49.438;8.752;2022-12-10T04:45:20;9.18;;;6.90;;
52047;SDS011;46904;49.438;8.752;2022-12-10T04:47:46;9.73;;;6.47;;
52047;SDS011;46904;49.438;8.752;2022-12-10T04:50:12;10.13;;;6.00;;
52047;SDS011;46904;49.438;8.752;2022-12-10T04:52:37;8.90;;;5.95;;
52047;SDS011;46904;49.438;8.752;2022-12-10T04:55:03;9.52;;;6.93;;
52047;SDS011;46904;49.438;8.752;2022-12-10T04:57:29;9.07;;;6.45;;
52047;SDS011;46904;49.438;8.752;2022-12-10T04:59:54;9.73;;;6.30;;
52047;SDS011;46904;49.438;8.752;2022-12-10T05:02:20;9.57;;;6.45;;
52047;SDS011;46904;49.438;8.752;2022-12-10T05:04:45;10.32;;;6.40;;
52047;SDS011;46904;49.438;8.752;2022-12-10T05:07:13;9.40;;;6.20;;
52047;SDS011;46904;49.438;8.752;2022-12-10T05:09:38;9.63;;;6.38;;
52047;SDS011;46904;49.438;8.752;2022-12-10T05:12:04;10.05;;;6.90;;
52047;SDS011;46904;49.438;8.752;2022-12-10T05:14:29;9.32;;;6.70;;
52047;SDS011;46904;49.438;8.752;2022-12-10T05:16:55;10.10;;;6.53;;
52047;SDS011;46904;49.438;8.752;2022-12-10T05:19:20;10.85;;;6.55;;
52047;SDS011;46904;49.438;8.752;2022-12-10T05:21:46;8.55;;;5.95;;
52047;SDS011;46904;49.438;8.752;2022-12-10T05:24:12;9.52;;;6.50;;
52047;SDS011;46904;49.438;8.752;2022-12-10T05:26:38;10.75;;;6.97;;
52047;SDS011;46904;49.438;8.752;2022-12-10T05:29:03;10.98;;;6.30;;
52047;SDS011;46904;49.438;8.752;2022-12-10T05:31:29;8.98;;;6.63;;
52047;SDS011;46904;49.438;8.752;2022-12-10T05:33:56;9.40;;;6.28;;
52047;SDS011;46904;49.438;8.752;2022-12-10T05:36:23;9.77;;;6.30;;
52047;SDS011;46904;49.438;8.752;2022-12-10T05:38:49;9.65;;;6.40;;
52047;SDS011;46904;49.438;8.752;2022-12-10T05:41:19;9.48;;;6.10;;
52047;SDS011;46904;49.438;8.752;2022-12-10T05:43:46;10.55;;;7.10;;
52047;SDS011;46904;49.438;8.752;2022-12-10T05:46:12;10.65;;;6.88;;
52047;SDS011;46904;49.438;8.752;2022-12-10T05:48:38;9.98;;;6.90;;
52047;SDS011;46904;49.438;8.752;2022-12-10T05:51:04;8.15;;;6.45;;
52047;SDS011;46904;49.438;8.752;2022-12-10T05:53:30;9.73;;;6.60;;
52047;SDS011;46904;49.438;8.752;2022-12-10T05:56:02;10.02;;;6.35;;
52047;SDS011;46904;49.438;8.752;2022-12-10T05:58:28;7.60;;;5.93;;
52047;SDS011;46904;49.438;8.752;2022-12-10T06:00:54;8.77;;;5.82;;
52047;SDS011;46904;49.438;8.752;2022-12-10T06:03:20;9.10;;;5.82;;
52047;SDS011;46904;49.438;8.752;2022-12-10T06:05:46;7.38;;;5.40;;
52047;SDS011;46904;49.438;8.752;2022-12-10T06:08:11;9.85;;;6.78;;
52047;SDS011;46904;49.438;8.752;2022-12-10T06:10:37;8.55;;;6.05;;
52047;SDS011;46904;49.438;8.752;2022-12-10T06:13:03;9.85;;;6.25;;
52047;SDS011;46904;49.438;8.752;2022-12-10T06:15:29;7.68;;;5.72;;
52047;SDS011;46904;49.438;8.752;2022-12-10T06:17:55;8.55;;;6.10;;
52047;SDS011;46904;49.438;8.752;2022-12-10T06:20:21;8.65;;;5.53;;
52047;SDS011;46904;49.438;8.752;2022-12-10T06:22:46;9.85;;;6.90;;
52047;SDS011;46904;49.438;8.752;2022-12-10T06:25:12;10.77;;;6.85;;
52047;SDS011;46904;49.438;8.752;2022-12-10T06:27:37;11.82;;;7.13;;
52047;SDS011;46904;49.438;8.752;2022-12-10T06:30:03;10.43;;;7.10;;
52047;SDS011;46904;49.438;8.752;2022-12-10T06:32:29;10.43;;;6.78;;
52047;SDS011;46904;49.438;8.752;2022-12-10T06:34:54;12.15;;;7.53;;
52047;SDS011;46904;49.438;8.752;2022-12-10T06:37:20;13.27;;;7.95;;
52047;SDS011;46904;49.438;8.752;2022-12-10T06:39:45;11.38;;;7.47;;
52047;SDS011;46904;49.438;8.752;2022-12-10T06:42:11;11.07;;;7.05;;
52047;SDS011;46904;49.438;8.752;2022-12-10T06:44:36;9.30;;;6.75;;
52047;SDS011;46904;49.438;8.752;2022-12-10T06:47:02;10.35;;;7.57;;
52047;SDS011;46904;49.438;8.752;2022-12-10T06:49:28;10.85;;;7.63;;
52047;SDS011;46904;49.438;8.752;2022-12-10T06:51:53;10.77;;;7.45;;
52047;SDS011;46904;49.438;8.752;2022-12-10T06:54:19;10.40;;;6.68;;
52047;SDS011;46904;49.438;8.752;2022-12-10T06:56:44;8.73;;;6.47;;
52047;SDS011;46904;49.438;8.752;2022-12-10T06:59:10;10.25;;;7.05;;
52047;SDS011;46904;49.438;8.752;2022-12-10T07:01:37;12.10;;;8.25;;
52047;SDS011;46904;49.438;8.752;2022-12-10T07:04:02;13.85;;;7.95;;
52047;SDS011;46904;49.438;8.752;2022-12-10T07:06:28;12.02;;;7.43;;
52047;SDS011;46904;49.438;8.752;2022-12-10T07:08:55;11.13;;;6.82;;
52047;SDS011;46904;49.438;8.752;2022-12-10T07:11:21;13.75;;;7.45;;
52047;SDS011;46904;49.438;8.752;2022-12-10T07:13:48;12.70;;;7.50;;
52047;SDS011;46904;49.438;8.752;2022-12-10T07:16:14;10.65;;;7.60;;
52047;SDS011;46904;49.438;8.752;2022-12-10T07:18:40;10.77;;;7.38;;
52047;SDS011;46904;49.438;8.752;2022-12-10T07:21:12;9.80;;;7.30;;
52047;SDS011;46904;49.438;8.752;2022-12-10T07:23:38;11.73;;;7.60;;
52047;SDS011;46904;49.438;8.752;2022-12-10T07:26:04;11.68;;;6.90;;
52047;SDS011;46904;49.438;8.752;2022-12-10T07:28:29;10.18;;;6.68;;
52047;SDS011;46904;49.438;8.752;2022-12-10T07:31:02;11.55;;;7.25;;
52047;SDS011;46904;49.438;8.752;2022-12-10T07:33:27;11.40;;;7.30;;
52047;SDS011;46904;49.438;8.752;2022-12-10T07:35:53;11.00;;;7.15;;
52047;SDS011;46904;49.438;8.752;2022-12-10T07:38:18;11.95;;;7.53;;
52047;SDS011;46904;49.438;8.752;2022-12-10T07:40:44;11.15;;;7.50;;
52047;SDS011;46904;49.438;8.752;2022-12-10T07:43:09;12.10;;;7.78;;
52047;SDS011;46904;49.438;8.752;2022-12-10T07:45:35;12.93;;;8.38;;
52047;SDS011;46904;49.438;8.752;2022-12-10T07:48:01;12.32;;;7.30;;
52047;SDS011;46904;49.438;8.752;2022-12-10T07:50:26;11.35;;;7.45;;
52047;SDS011;46904;49.438;8.752;2022-12-10T07:52:52;12.85;;;8.45;;
52047;SDS011;46904;49.438;8.752;2022-12-10T07:55:17;10.75;;;6.85;;
52047;SDS011;46904;49.438;8.752;2022-12-10T07:57:43;10.27;;;7.20;;
52047;SDS011;46904;49.438;8.752;2022-12-10T08:00:08;11.20;;;7.75;;
52047;SDS011;46904;49.438;8.752;2022-12-10T08:02:34;12.50;;;7.88;;
52047;SDS011;46904;49.438;8.752;2022-12-10T08:05:00;11.68;;;7.13;;
52047;SDS011;46904;49.438;8.752;2022-12-10T08:07:25;10.07;;;7.45;;
52047;SDS011;46904;49.438;8.752;2022-12-10T08:09:51;10.73;;;7.15;;
52047;SDS011;46904;49.438;8.752;2022-12-10T08:12:17;10.52;;;6.90;;
52047;SDS011;46904;49.438;8.752;2022-12-10T08:14:42;12.20;;;7.30;;
52047;SDS011;46904;49.438;8.752;2022-12-10T08:17:08;10.43;;;6.75;;
52047;SDS011;46904;49.438;8.752;2022-12-10T08:19:33;11.30;;;7.55;;
52047;SDS011;46904;49.438;8.752;2022-12-10T08:21:59;10.52;;;7.20;;
52047;SDS011;46904;49.438;8.752;2022-12-10T08:24:24;11.95;;;7.35;;
52047;SDS011;46904;49.438;8.752;2022-12-10T08:26:50;11.13;;;8.23;;
52047;SDS011;46904;49.438;8.752;2022-12-10T08:29:15;9.95;;;7.13;;
52047;SDS011;46904;49.438;8.752;2022-12-10T08:31:41;10.75;;;7.50;;
52047;SDS011;46904;49.438;8.752;2022-12-10T08:34:13;9.98;;;6.78;;
52047;SDS011;46904;49.438;8.752;2022-12-10T08:36:39;11.07;;;7.22;;
52047;SDS011;46904;49.438;8.752;2022-12-10T08:39:04;11.27;;;7.22;;
52047;SDS011;46904;49.438;8.752;2022-12-10T08:41:30;11.77;;;7.00;;
52047;SDS011;46904;49.438;8.752;2022-12-10T08:43:56;12.43;;;7.50;;
52047;SDS011;46904;49.438;8.752;2022-12-10T08:46:21;12.50;;;7.78;;
52047;SDS011;46904;49.438;8.752;2022-12-10T08:48:47;12.90;;;8.35;;
52047;SDS011;46904;49.438;8.752;2022-12-10T08:51:13;12.02;;;7.75;;
52047;SDS011;46904;49.438;8.752;2022-12-10T08:53:39;13.80;;;8.57;;
52047;SDS011;46904;49.438;8.752;2022-12-10T08:56:05;13.05;;;8.25;;
52047;SDS011;46904;49.438;8.752;2022-12-10T08:58:30;13.60;;;8.57;;
52047;SDS011;46904;49.438;8.752;2022-12-10T09:00:56;13.45;;;8.65;;
52047;SDS011;46904;49.438;8.752;2022-12-10T09:03:22;15.70;;;9.32;;
52047;SDS011;46904;49.438;8.752;2022-12-10T09:05:48;13.70;;;8.77;;
52047;SDS011;46904;49.438;8.752;2022-12-10T09:08:13;15.82;;;10.50;;
52047;SDS011;46904;49.438;8.752;2022-12-10T09:10:39;16.50;;;9.88;;
52047;SDS011;46904;49.438;8.752;2022-12-10T09:13:05;16.55;;;10.20;;
52047;SDS011;46904;49.438;8.752;2022-12-10T09:15:31;14.30;;;9.27;;
52047;SDS011;46904;49.438;8.752;2022-12-10T09:17:56;16.38;;;9.82;;
52047;SDS011;46904;49.438;8.752;2022-12-10T09:20:22;14.88;;;8.60;;
52047;SDS011;46904;49.438;8.752;2022-12-10T09:22:47;15.95;;;9.55;;
52047;SDS011;46904;49.438;8.752;2022-12-10T09:25:13;17.30;;;10.07;;
52047;SDS011;46904;49.438;8.752;2022-12-10T09:27:38;16.83;;;10.60;;
52047;SDS011;46904;49.438;8.752;2022-12-10T09:30:04;18.05;;;10.98;;
52047;SDS011;46904;49.438;8.752;2022-12-10T09:32:30;15.68;;;9.60;;
52047;SDS011;46904;49.438;8.752;2022-12-10T09:34:55;17.45;;;9.93;;
52047;SDS011;46904;49.438;8.752;2022-12-10T09:37:21;16.17;;;9.35;;
52047;SDS011;46904;49.438;8.752;2022-12-10T09:39:46;15.75;;;9.77;;
52047;SDS011;46904;49.438;8.752;2022-12-10T09:47:13;18.42;;;9.93;;
52047;SDS011;46904;49.438;8.752;2022-12-10T09:52:23;16.17;;;9.88;;
52047;SDS011;46904;49.438;8.752;2022-12-10T09:54:52;16.25;;;10.05;;
52047;SDS011;46904;49.438;8.752;2022-12-10T09:57:20;14.13;;;9.43;;
52047;SDS011;46904;49.438;8.752;2022-12-10T09:59:48;14.57;;;9.45;;
52047;SDS011;46904;49.438;8.752;2022-12-10T10:04:39;14.38;;;8.48;;
52047;SDS011;46904;49.438;8.752;2022-12-10T10:07:05;15.68;;;9.65;;
52047;SDS011;46904;49.438;8.752;2022-12-10T10:09:39;13.77;;;8.15;;
52047;SDS011;46904;49.438;8.752;2022-12-10T10:12:10;13.32;;;8.50;;
52047;SDS011;46904;49.438;8.752;2022-12-10T10:14:37;12.90;;;8.43;;
52047;SDS011;46904;49.438;8.752;2022-12-10T10:17:03;12.65;;;8.35;;
52047;SDS011;46904;49.438;8.752;2022-12-10T10:19:33;12.50;;;8.55;;
52047;SDS011;46904;49.438;8.752;2022-12-10T10:21:59;12.27;;;8.23;;
52047;SDS011;46904;49.438;8.752;2022-12-10T10:24:26;11.25;;;7.45;;
52047;SDS011;46904;49.438;8.752;2022-12-10T10:26:56;13.32;;;8.13;;
52047;SDS011;46904;49.438;8.752;2022-12-10T10:29:22;12.02;;;7.88;;
52047;SDS011;46904;49.438;8.752;2022-12-10T10:31:57;12.10;;;7.68;;
52047;SDS011;46904;49.438;8.752;2022-12-10T10:34:33;12.60;;;8.05;;
52047;SDS011;46904;49.438;8.752;2022-12-10T10:36:59;12.55;;;7.97;;
52047;SDS011;46904;49.438;8.752;2022-12-10T10:39:29;12.38;;;7.80;;
52047;SDS011;46904;49.438;8.752;2022-12-10T10:41:56;12.00;;;7.85;;
52047;SDS011;46904;49.438;8.752;2022-12-10T10:44:22;14.07;;;8.02;;
52047;SDS011;46904;49.438;8.752;2022-12-10T10:46:49;12.20;;;8.20;;
52047;SDS011;46904;49.438;8.752;2022-12-10T10:51:46;13.45;;;7.43;;
52047;SDS011;46904;49.438;8.752;2022-12-10T10:54:12;10.32;;;7.53;;
52047;SDS011;46904;49.438;8.752;2022-12-10T10:56:55;11.38;;;7.78;;
52047;SDS011;46904;49.438;8.752;2022-12-10T10:59:28;14.32;;;8.60;;
52047;SDS011;46904;49.438;8.752;2022-12-10T11:01:55;11.95;;;7.07;;
52047;SDS011;46904;49.438;8.752;2022-12-10T11:04:36;15.35;;;9.38;;
52047;SDS011;46904;49.438;8.752;2022-12-10T11:07:03;11.95;;;7.30;;
52047;SDS011;46904;49.438;8.752;2022-12-10T11:09:30;9.80;;;6.32;;
52047;SDS011;46904;49.438;8.752;2022-12-10T11:11:58;11.30;;;6.85;;
52047;SDS011;46904;49.438;8.752;2022-12-10T11:16:49;9.48;;;6.55;;
52047;SDS011;46904;49.438;8.752;2022-12-10T11:19:22;9.13;;;5.78;;
52047;SDS011;46904;49.438;8.752;2022-12-10T11:21:48;8.70;;;5.22;;
52047;SDS011;46904;49.438;8.752;2022-12-10T11:24:14;9.10;;;5.30;;
52047;SDS011;46904;49.438;8.752;2022-12-10T11:26:43;8.32;;;5.10;;
52047;SDS011;46904;49.438;8.752;2022-12-10T11:29:17;7.38;;;5.05;;
52047;SDS011;46904;49.438;8.752;2022-12-10T11:34:18;7.10;;;4.95;;
52047;SDS011;46904;49.438;8.752;2022-12-10T11:36:57;6.90;;;5.20;;
52047;SDS011;46904;49.438;8.752;2022-12-10T11:52:38;7.18;;;5.22;;
52047;SDS011;46904;49.438;8.752;2022-12-10T11:57:52;6.75;;;4.70;;
52047;SDS011;46904;49.438;8.752;2022-12-10T12:00:23;9.50;;;4.03;;
52047;SDS011;46904;49.438;8.752;2022-12-10T12:05:52;5.97;;;3.58;;
52047;SDS011;46904;49.438;8.752;2022-12-10T12:16:30;5.82;;;4.30;;
52047;SDS011;46904;49.438;8.752;2022-12-10T12:19:02;5.70;;;4.07;;
52047;SDS011;46904;49.438;8.752;2022-12-10T12:21:28;7.25;;;4.68;;
52047;SDS011;46904;49.438;8.752;2022-12-10T12:24:04;6.05;;;4.60;;
52047;SDS011;46904;49.438;8.752;2022-12-10T12:31:46;7.25;;;4.30;;
52047;SDS011;46904;49.438;8.752;2022-12-10T12:34:21;7.03;;;5.07;;
52047;SDS011;46904;49.438;8.752;2022-12-10T12:36:50;6.00;;;4.28;;
52047;SDS011;46904;49.438;8.752;2022-12-10T12:42:09;7.97;;;5.00;;
52047;SDS011;46904;49.438;8.752;2022-12-10T12:47:22;6.75;;;4.90;;
52047;SDS011;46904;49.438;8.752;2022-12-10T12:49:51;5.75;;;3.90;;
52047;SDS011;46904;49.438;8.752;2022-12-10T12:54:59;6.80;;;4.82;;
52047;SDS011;46904;49.438;8.752;2022-12-10T12:57:34;5.82;;;4.07;;
52047;SDS011;46904;49.438;8.752;2022-12-10T13:00:14;5.47;;;3.90;;
52047;SDS011;46904;49.438;8.752;2022-12-10T13:05:18;5.85;;;4.90;;
52047;SDS011;46904;49.438;8.752;2022-12-10T13:07:45;8.43;;;5.28;;
52047;SDS011;46904;49.438;8.752;2022-12-10T13:10:42;6.13;;;4.13;;
52047;SDS011;46904;49.438;8.752;2022-12-10T13:18:45;7.20;;;3.80;;
52047;SDS011;46904;49.438;8.752;2022-12-10T13:23:49;5.10;;;3.72;;
52047;SDS011;46904;49.438;8.752;2022-12-10T13:26:22;6.22;;;4.45;;
52047;SDS011;46904;49.438;8.752;2022-12-10T13:28:49;5.35;;;4.00;;
52047;SDS011;46904;49.438;8.752;2022-12-10T13:34:25;6.80;;;4.55;;
52047;SDS011;46904;49.438;8.752;2022-12-10T13:41:33;6.18;;;4.13;;
52047;SDS011;46904;49.438;8.752;2022-12-10T13:43:59;5.97;;;4.10;;
52047;SDS011;46904;49.438;8.752;2022-12-10T13:48:54;6.75;;;4.38;;
52047;SDS011;46904;49.438;8.752;2022-12-10T13:56:17;6.30;;;5.03;;
52047;SDS011;46904;49.438;8.752;2022-12-10T14:01:35;8.52;;;5.22;;
52047;SDS011;46904;49.438;8.752;2022-12-10T14:04:13;8.90;;;5.65;;
52047;SDS011;46904;49.438;8.752;2022-12-10T14:06:40;9.15;;;6.03;;
52047;SDS011;46904;49.438;8.752;2022-12-10T14:11:37;8.43;;;6.30;;
52047;SDS011;46904;49.438;8.752;2022-12-10T14:14:04;8.27;;;5.35;;
52047;SDS011;46904;49.438;8.752;2022-12-10T14:16:31;8.77;;;6.30;;
52047;SDS011;46904;49.438;8.752;2022-12-10T14:19:07;7.53;;;5.80;;
52047;SDS011;46904;49.438;8.752;2022-12-10T14:21:37;7.90;;;5.53;;
52047;SDS011;46904;49.438;8.752;2022-12-10T14:26:29;15.43;;;7.53;;
52047;SDS011;46904;49.438;8.752;2022-12-10T14:28:59;13.13;;;8.13;;
52047;SDS011;46904;49.438;8.752;2022-12-10T14:31:33;15.50;;;8.35;;
52047;SDS011;46904;49.438;8.752;2022-12-10T14:34:04;10.45;;;6.35;;
52047;SDS011;46904;49.438;8.752;2022-12-10T14:36:41;13.18;;;7.18;;
52047;SDS011;46904;49.438;8.752;2022-12-10T14:41:38;10.45;;;6.68;;
52047;SDS011;46904;49.438;8.752;2022-12-10T14:44:04;8.65;;;5.95;;
52047;SDS011;46904;49.438;8.752;2022-12-10T14:46:32;9.80;;;6.35;;
52047;SDS011;46904;49.438;8.752;2022-12-10T14:48:58;8.77;;;6.35;;
52047;SDS011;46904;49.438;8.752;2022-12-10T14:51:25;9.20;;;5.72;;
52047;SDS011;46904;49.438;8.752;2022-12-10T14:53:51;8.38;;;5.80;;
52047;SDS011;46904;49.438;8.752;2022-12-10T14:56:24;7.97;;;5.45;;
52047;SDS011;46904;49.438;8.752;2022-12-10T14:59:16;7.35;;;5.15;;
52047;SDS011;46904;49.438;8.752;2022-12-10T15:01:43;8.52;;;5.45;;
52047;SDS011;46904;49.438;8.752;2022-12-10T15:04:14;7.10;;;5.32;;
52047;SDS011;46904;49.438;8.752;2022-12-10T15:06:40;7.72;;;5.10;;
52047;SDS011;46904;49.438;8.752;2022-12-10T15:09:18;9.30;;;6.00;;
52047;SDS011;46904;49.438;8.752;2022-12-10T15:11:44;9.02;;;5.82;;
52047;SDS011;46904;49.438;8.752;2022-12-10T15:14:15;8.30;;;5.45;;
52047;SDS011;46904;49.438;8.752;2022-12-10T15:16:43;8.65;;;5.57;;
52047;SDS011;46904;49.438;8.752;2022-12-10T15:19:43;7.85;;;5.57;;
52047;SDS011;46904;49.438;8.752;2022-12-10T15:22:17;7.70;;;5.75;;
52047;SDS011;46904;49.438;8.752;2022-12-10T15:24:43;9.15;;;6.25;;
52047;SDS011;46904;49.438;8.752;2022-12-10T15:27:14;8.05;;;5.55;;
52047;SDS011;46904;49.438;8.752;2022-12-10T15:29:40;10.98;;;7.28;;
52047;SDS011;46904;49.438;8.752;2022-12-10T15:34:39;12.68;;;7.25;;
52047;SDS011;46904;49.438;8.752;2022-12-10T15:37:05;8.18;;;5.80;;
52047;SDS011;46904;49.438;8.752;2022-12-10T15:39:32;8.68;;;5.72;;
